Time;durP1;ratioP1;P1;durP2;ratioP2;P2;SDS_P1;SDS_P2;PMS_P1;PMS_P2;Temp;Humidity;BMP_temperature;BMP_pressure;BME280_temperature;BME280_humidity;BME280_pressure;Samples;Min_cycle;Max_cycle;Signal;HPM_P1;HPM_P2
2023/07/12 00:00:27;;;;;;;7.60;6.03;;;24.50;99.90;;;;;;5061939;28;20233;-45
2023/07/12 00:02:57;;;;;;;7.40;6.73;;;24.50;99.90;;;;;;5062528;28;20157;-51
2023/07/12 00:05:27;;;;;;;7.72;7.05;;;24.50;99.90;;;;;;5061352;28;20173;-43
2023/07/12 00:07:53;;;;;;;8.88;7.53;;;24.40;99.90;;;;;;5061665;28;20168;-47
2023/07/12 00:10:24;;;;;;;9.40;8.45;;;24.40;99.90;;;;;;5061820;28;20169;-46
2023/07/12 00:12:51;;;;;;;10.67;9.67;;;24.40;99.90;;;;;;5061842;28;20184;-47
2023/07/12 00:15:23;;;;;;;11.40;9.43;;;24.40;99.90;;;;;;5061590;28;20180;-49
2023/07/12 00:17:51;;;;;;;10.27;9.07;;;24.40;99.90;;;;;;5062463;28;20283;-45
2023/07/12 00:20:19;;;;;;;9.25;7.88;;;24.40;99.90;;;;;;5061510;28;20169;-46
2023/07/12 00:22:45;;;;;;;9.13;8.20;;;24.30;99.90;;;;;;5061472;28;20326;-46
2023/07/12 00:25:12;;;;;;;8.77;8.07;;;24.30;99.90;;;;;;5078890;28;20208;-48
2023/07/12 00:27:37;;;;;;;7.77;7.17;;;24.30;99.90;;;;;;5061927;28;20375;-44
2023/07/12 00:30:21;;;;;;;7.70;7.00;;;24.30;99.90;;;;;;5094116;28;20349;-44
2023/07/12 00:32:49;;;;;;;8.40;7.60;;;24.30;99.90;;;;;;5081143;28;20172;-45
2023/07/12 00:35:18;;;;;;;9.57;8.67;;;24.20;99.90;;;;;;5080297;28;20180;-45
2023/07/12 00:37:45;;;;;;;9.98;8.88;;;24.10;99.90;;;;;;5081206;28;20208;-47
2023/07/12 00:40:29;;;;;;;12.07;11.13;;;24.20;99.90;;;;;;5081040;28;20168;-43
2023/07/12 00:43:05;;;;;;;36.60;34.10;;;24.10;99.90;;;;;;5081874;28;20187;-45
2023/07/12 00:45:33;;;;;;;15.23;13.83;;;24.10;99.90;;;;;;5081401;28;20656;-46
2023/07/12 00:47:58;;;;;;;47.30;44.60;;;24.10;99.90;;;;;;5081508;28;20463;-43
2023/07/12 00:50:27;;;;;;;28.50;26.57;;;24.00;99.90;;;;;;5080933;28;20185;-46
2023/07/12 00:52:53;;;;;;;48.97;46.23;;;23.90;99.90;;;;;;5098988;28;20233;-45
2023/07/12 00:55:56;;;;;;;19.47;17.93;;;23.70;99.90;;;;;;5080961;28;20160;-45
2023/07/12 00:58:24;;;;;;;14.33;13.30;;;23.60;99.90;;;;;;5081079;28;20231;-43
2023/07/12 01:00:51;;;;;;;8.30;6.60;;;23.50;99.90;;;;;;5080556;28;20175;-44
2023/07/12 01:03:20;;;;;;;6.90;6.03;;;23.40;99.90;;;;;;5097248;28;20187;-46
2023/07/12 01:05:46;;;;;;;8.10;5.80;;;23.40;99.90;;;;;;5080501;28;20248;-45
2023/07/12 01:08:13;;;;;;;7.77;5.60;;;23.30;99.90;;;;;;5097336;28;20212;-46
2023/07/12 01:10:39;;;;;;;11.30;10.27;;;23.20;99.90;;;;;;5079652;28;20167;-44
2023/07/12 01:13:06;;;;;;;8.67;8.07;;;23.20;99.90;;;;;;5079573;28;20196;-44
2023/07/12 01:15:33;;;;;;;8.17;7.53;;;23.10;99.90;;;;;;5080062;28;20164;-46
2023/07/12 01:18:00;;;;;;;8.30;6.93;;;23.00;99.90;;;;;;5079954;28;20164;-43
2023/07/12 01:20:26;;;;;;;9.83;6.33;;;23.00;99.90;;;;;;5096057;28;20168;-44
2023/07/12 01:22:54;;;;;;;8.93;5.73;;;23.00;99.90;;;;;;5079954;28;20175;-43
2023/07/12 01:25:38;;;;;;;8.80;6.83;;;22.90;99.90;;;;;;5080695;28;20206;-44
2023/07/12 01:28:04;;;;;;;7.20;6.60;;;22.90;99.90;;;;;;5080287;28;20199;-44
2023/07/12 01:30:31;;;;;;;15.30;13.90;;;22.70;99.90;;;;;;5097245;28;20230;-44
2023/07/12 01:33:04;;;;;;;30.77;29.10;;;22.70;99.90;;;;;;5080112;28;20309;-44
2023/07/12 01:35:31;;;;;;;15.37;14.47;;;22.70;99.90;;;;;;5097892;28;20172;-44
2023/07/12 01:37:57;;;;;;;40.63;38.33;;;22.70;99.90;;;;;;5080855;28;20265;-43
2023/07/12 01:40:22;;;;;;;21.23;20.03;;;22.70;99.90;;;;;;5080148;28;20619;-44
2023/07/12 01:42:48;;;;;;;18.80;17.50;;;22.80;99.90;;;;;;5097712;28;20743;-44
2023/07/12 01:45:13;;;;;;;10.67;9.93;;;22.70;99.90;;;;;;5079144;28;20251;-43
2023/07/12 01:47:39;;;;;;;8.43;5.67;;;22.70;99.90;;;;;;5079654;28;20719;-43
2023/07/12 01:50:05;;;;;;;5.87;4.87;;;22.60;99.90;;;;;;5079700;28;20176;-43
2023/07/12 01:52:31;;;;;;;6.90;4.90;;;22.50;99.90;;;;;;5097251;28;20164;-45
2023/07/12 01:54:57;;;;;;;6.30;5.40;;;22.50;99.90;;;;;;5079986;28;20574;-47
2023/07/12 01:57:23;;;;;;;7.37;6.27;;;22.40;99.90;;;;;;5079952;28;20235;-43
2023/07/12 01:59:48;;;;;;;6.07;5.43;;;22.30;99.90;;;;;;5080405;28;20188;-46
2023/07/12 02:02:14;;;;;;;4.40;4.03;;;22.30;99.90;;;;;;5080103;28;20222;-46
2023/07/12 02:04:39;;;;;;;5.63;5.13;;;22.20;99.90;;;;;;5080644;28;20450;-45
2023/07/12 02:07:05;;;;;;;7.50;7.00;;;22.20;99.90;;;;;;5080701;28;20619;-44
2023/07/12 02:09:39;;;;;;;5.10;3.63;;;22.20;99.90;;;;;;5079919;28;20168;-46
2023/07/12 02:12:05;;;;;;;7.60;6.90;;;22.10;99.90;;;;;;5080363;28;20274;-44
2023/07/12 02:14:30;;;;;;;5.67;5.37;;;22.10;99.90;;;;;;5080523;28;20175;-43
2023/07/12 02:16:56;;;;;;;4.40;4.10;;;22.00;99.90;;;;;;5101039;28;20187;-42
2023/07/12 02:19:22;;;;;;;5.93;4.63;;;22.00;99.90;;;;;;5101401;28;20152;-45
2023/07/12 02:21:49;;;;;;;6.07;5.67;;;22.00;99.90;;;;;;5101513;28;20186;-45
2023/07/12 02:24:14;;;;;;;6.20;5.80;;;22.00;99.90;;;;;;5102476;28;20160;-43
2023/07/12 02:26:41;;;;;;;6.70;6.07;;;22.00;99.90;;;;;;5084115;28;20191;-46
2023/07/12 02:29:07;;;;;;;6.27;5.00;;;22.00;99.90;;;;;;5080792;28;20220;-45
2023/07/12 02:31:32;;;;;;;7.83;7.27;;;22.00;99.90;;;;;;5081547;28;20487;-46
2023/07/12 02:33:58;;;;;;;6.67;6.07;;;22.00;99.90;;;;;;5081834;28;20214;-44
2023/07/12 02:36:24;;;;;;;7.60;6.90;;;21.90;99.90;;;;;;5081053;28;20230;-47
2023/07/12 02:38:50;;;;;;;3.57;3.37;;;22.00;99.90;;;;;;5081168;28;20191;-45
2023/07/12 02:41:16;;;;;;;5.00;4.70;;;22.00;99.90;;;;;;5080280;28;20165;-44
2023/07/12 02:43:43;;;;;;;6.67;6.00;;;21.80;99.90;;;;;;5081144;28;20157;-45
2023/07/12 02:46:08;;;;;;;5.20;4.80;;;21.80;99.90;;;;;;5080218;28;20703;-43
2023/07/12 02:48:35;;;;;;;6.83;6.30;;;21.80;99.90;;;;;;5079571;28;20184;-44
2023/07/12 02:51:01;;;;;;;8.13;7.50;;;21.80;99.90;;;;;;5080546;28;20613;-43
2023/07/12 02:53:28;;;;;;;12.53;11.73;;;21.80;99.90;;;;;;5079978;28;20169;-46
2023/07/12 02:55:54;;;;;;;10.40;9.80;;;21.80;99.90;;;;;;5079878;28;20194;-44
2023/07/12 02:58:20;;;;;;;9.07;8.60;;;21.80;99.90;;;;;;5079897;28;20191;-47
2023/07/12 03:00:46;;;;;;;29.70;28.27;;;21.70;99.90;;;;;;5080248;28;20168;-43
2023/07/12 03:03:12;;;;;;;15.23;14.33;;;21.70;99.90;;;;;;5080460;28;20568;-44
2023/07/12 03:05:39;;;;;;;21.77;20.47;;;21.70;99.90;;;;;;5080480;28;20223;-43
2023/07/12 03:08:05;;;;;;;14.57;13.67;;;21.80;99.90;;;;;;5079538;28;20164;-44
2023/07/12 03:10:31;;;;;;;13.07;12.43;;;21.80;99.90;;;;;;5080329;28;20428;-43
2023/07/12 03:12:57;;;;;;;9.10;8.53;;;21.90;99.90;;;;;;5079603;28;20194;-44
2023/07/12 03:15:23;;;;;;;6.20;5.73;;;22.00;99.90;;;;;;5079919;28;20149;-43
2023/07/12 03:17:49;;;;;;;7.03;6.53;;;22.00;99.90;;;;;;5079472;28;20207;-43
2023/07/12 03:20:14;;;;;;;7.60;7.03;;;22.00;99.90;;;;;;5079261;28;20260;-44
2023/07/12 03:22:40;;;;;;;8.37;7.87;;;22.00;99.90;;;;;;5080253;28;20214;-43
2023/07/12 03:25:06;;;;;;;9.70;9.03;;;22.00;99.90;;;;;;5079710;28;20165;-43
2023/07/12 03:27:31;;;;;;;9.97;9.37;;;22.00;99.90;;;;;;5080236;28;20600;-46
2023/07/12 03:29:57;;;;;;;12.20;11.53;;;22.00;99.90;;;;;;5092680;28;20251;-46
2023/07/12 03:32:24;;;;;;;11.10;10.50;;;21.90;99.90;;;;;;5100130;28;20160;-46
2023/07/12 03:34:50;;;;;;;12.70;11.80;;;21.90;99.90;;;;;;5083175;28;20672;-43
2023/07/12 03:37:15;;;;;;;14.37;13.47;;;21.90;99.90;;;;;;5082666;28;20199;-46
2023/07/12 03:39:41;;;;;;;15.87;14.97;;;21.80;99.90;;;;;;5082921;28;20213;-43
2023/07/12 03:42:06;;;;;;;17.87;16.90;;;21.80;99.90;;;;;;5082934;28;20180;-42
2023/07/12 03:44:32;;;;;;;22.10;20.93;;;21.80;99.90;;;;;;5082417;28;20176;-48
2023/07/12 03:46:57;;;;;;;26.30;24.80;;;21.90;99.90;;;;;;5099880;28;20244;-43
2023/07/12 03:49:23;;;;;;;28.87;27.33;;;21.90;99.90;;;;;;5100028;28;20202;-44
2023/07/12 03:51:49;;;;;;;26.17;24.77;;;21.90;99.90;;;;;;5099927;28;20179;-44
2023/07/12 03:54:14;;;;;;;24.47;23.27;;;21.80;99.90;;;;;;5081649;28;20262;-43
2023/07/12 03:56:40;;;;;;;28.07;26.57;;;21.70;99.90;;;;;;5081031;28;20300;-47
2023/07/12 03:59:08;;;;;;;23.53;22.17;;;21.60;99.90;;;;;;5099494;28;20208;-45
2023/07/12 04:01:37;;;;;;;19.53;18.40;;;21.60;99.90;;;;;;5099293;28;20228;-43
2023/07/12 04:04:03;;;;;;;11.00;10.37;;;21.60;99.90;;;;;;5082424;28;20164;-43
2023/07/12 04:06:29;;;;;;;4.90;4.43;;;21.60;99.90;;;;;;5082080;28;20618;-43
2023/07/12 04:08:55;;;;;;;4.33;4.03;;;21.60;99.90;;;;;;5081610;28;20237;-46
2023/07/12 04:11:32;;;;;;;10.17;4.10;;;21.70;99.90;;;;;;5099812;28;20243;-43
2023/07/12 04:13:59;;;;;;;5.43;5.03;;;21.60;99.90;;;;;;5099304;28;20171;-48
2023/07/12 04:16:29;;;;;;;5.20;4.90;;;21.60;99.90;;;;;;5081728;28;20220;-44
2023/07/12 04:18:55;;;;;;;8.30;7.80;;;21.60;99.90;;;;;;5081656;28;20251;-44
2023/07/12 04:21:21;;;;;;;5.10;4.67;;;21.50;99.90;;;;;;5098258;28;20276;-45
2023/07/12 04:23:48;;;;;;;6.20;5.57;;;21.30;99.90;;;;;;5081238;28;20615;-45
2023/07/12 04:26:15;;;;;;;5.30;4.83;;;21.40;99.90;;;;;;5081603;28;20190;-44
2023/07/12 04:28:43;;;;;;;5.37;4.97;;;21.40;99.90;;;;;;5077749;28;20288;-47
2023/07/12 04:31:10;;;;;;;16.27;15.37;;;21.20;99.90;;;;;;5078798;28;20179;-45
2023/07/12 04:33:36;;;;;;;10.40;9.73;;;21.10;99.90;;;;;;5078375;28;20674;-47
2023/07/12 04:36:10;;;;;;;6.00;5.40;;;21.10;99.90;;;;;;5078534;28;20287;-46
2023/07/12 04:38:36;;;;;;;6.77;4.07;;;21.10;99.90;;;;;;5077708;28;20173;-43
2023/07/12 04:41:03;;;;;;;6.23;5.20;;;21.10;99.90;;;;;;5078308;28;20541;-46
2023/07/12 04:43:30;;;;;;;13.47;12.67;;;21.00;99.90;;;;;;5078008;28;20567;-44
2023/07/12 04:45:57;;;;;;;7.40;6.73;;;20.90;99.90;;;;;;5077503;28;20168;-43
2023/07/12 04:48:23;;;;;;;8.53;7.93;;;21.00;99.90;;;;;;5078502;28;20172;-46
2023/07/12 04:50:53;;;;;;;8.63;8.00;;;21.00;99.90;;;;;;5078087;28;20188;-44
2023/07/12 04:53:20;;;;;;;7.97;7.30;;;21.00;99.90;;;;;;5077998;28;20161;-43
2023/07/12 04:55:50;;;;;;;7.43;6.93;;;21.00;99.90;;;;;;5078138;28;20165;-43
2023/07/12 04:58:17;;;;;;;7.20;6.60;;;21.10;99.90;;;;;;5077051;28;20185;-45
2023/07/12 05:00:43;;;;;;;6.90;6.30;;;21.20;99.90;;;;;;5076872;28;20165;-43
2023/07/12 05:03:09;;;;;;;6.50;6.00;;;21.20;99.90;;;;;;5077304;28;20168;-44
2023/07/12 05:05:37;;;;;;;6.97;6.37;;;21.30;99.90;;;;;;5074073;28;20177;-43
2023/07/12 05:08:04;;;;;;;7.80;7.20;;;21.30;99.90;;;;;;5070407;28;20567;-44
2023/07/12 05:10:30;;;;;;;8.80;7.83;;;21.30;99.90;;;;;;5069876;28;20187;-43
2023/07/12 05:12:56;;;;;;;9.37;8.70;;;21.40;99.90;;;;;;5069464;28;20265;-43
2023/07/12 05:15:21;;;;;;;8.83;8.20;;;21.30;99.90;;;;;;5069729;28;20190;-43
2023/07/12 05:17:47;;;;;;;9.50;8.90;;;21.30;99.90;;;;;;5071114;28;20488;-46
2023/07/12 05:20:14;;;;;;;7.73;7.10;;;21.30;99.90;;;;;;5073254;28;20188;-46
2023/07/12 05:22:40;;;;;;;8.20;7.70;;;21.40;99.90;;;;;;5075195;28;20165;-43
2023/07/12 05:25:06;;;;;;;8.57;7.97;;;21.30;99.90;;;;;;5075690;28;20204;-46
2023/07/12 05:27:32;;;;;;;8.87;8.37;;;21.30;99.90;;;;;;5075557;28;20229;-43
2023/07/12 05:29:58;;;;;;;9.87;9.37;;;21.20;99.90;;;;;;5089826;28;20836;-45
2023/07/12 05:32:23;;;;;;;8.87;8.23;;;21.20;99.90;;;;;;5077716;28;20229;-43
2023/07/12 05:34:50;;;;;;;8.07;7.67;;;21.20;99.90;;;;;;5077937;28;20186;-43
2023/07/12 05:37:17;;;;;;;7.80;7.27;;;21.10;99.90;;;;;;5095194;28;20237;-43
2023/07/12 05:39:43;;;;;;;8.33;7.83;;;21.10;99.90;;;;;;5094916;28;20159;-43
2023/07/12 05:42:09;;;;;;;7.77;7.37;;;21.10;99.90;;;;;;5076389;28;20453;-44
2023/07/12 05:44:34;;;;;;;8.03;7.53;;;21.10;99.90;;;;;;5076151;28;20168;-44
2023/07/12 05:47:00;;;;;;;7.57;7.00;;;21.10;99.90;;;;;;5076995;28;20225;-42
2023/07/12 05:49:26;;;;;;;7.73;7.23;;;21.00;99.90;;;;;;5076356;28;20172;-46
2023/07/12 05:51:52;;;;;;;7.10;6.67;;;21.00;99.90;;;;;;5075257;28;20274;-50
2023/07/12 05:54:17;;;;;;;6.43;6.00;;;21.00;99.90;;;;;;5074805;28;20440;-46
2023/07/12 05:56:43;;;;;;;7.23;6.73;;;21.00;99.90;;;;;;5074859;28;20837;-44
2023/07/12 05:59:10;;;;;;;7.73;7.13;;;21.00;99.90;;;;;;5075597;28;20720;-43
2023/07/12 06:01:36;;;;;;;7.70;7.00;;;21.00;99.90;;;;;;5076084;28;20794;-45
2023/07/12 06:04:01;;;;;;;8.20;7.63;;;20.90;99.90;;;;;;5076249;28;20156;-44
2023/07/12 06:06:27;;;;;;;8.37;7.80;;;21.00;99.90;;;;;;5076268;28;20178;-43
2023/07/12 06:08:53;;;;;;;8.20;7.60;;;21.00;99.90;;;;;;5093677;28;20402;-44
2023/07/12 06:11:19;;;;;;;8.27;7.77;;;21.00;99.90;;;;;;5076980;28;20168;-44
2023/07/12 06:13:45;;;;;;;9.50;8.80;;;20.90;99.90;;;;;;5092225;28;20164;-47
2023/07/12 06:16:10;;;;;;;9.40;8.90;;;20.90;99.90;;;;;;5070282;28;20191;-48
2023/07/12 06:18:36;;;;;;;8.27;7.57;;;21.00;99.90;;;;;;5069100;28;20249;-43
2023/07/12 06:21:06;;;;;;;7.70;7.30;;;21.00;99.90;;;;;;5092536;28;20662;-44
2023/07/12 06:23:33;;;;;;;10.27;9.67;;;21.00;99.90;;;;;;5076945;28;20234;-43
2023/07/12 06:25:59;;;;;;;9.77;9.17;;;21.10;99.90;;;;;;5075673;28;20157;-45
2023/07/12 06:28:25;;;;;;;9.13;8.57;;;21.10;99.90;;;;;;5091832;28;20164;-44
2023/07/12 06:30:51;;;;;;;9.70;9.10;;;21.00;99.90;;;;;;5092315;28;20175;-43
2023/07/12 06:33:20;;;;;;;10.30;9.53;;;21.00;99.90;;;;;;5092556;28;20243;-46
2023/07/12 06:35:46;;;;;;;10.87;10.17;;;21.00;99.90;;;;;;5093723;28;20474;-43
2023/07/12 06:38:12;;;;;;;9.00;8.40;;;21.10;99.90;;;;;;5076322;28;20164;-45
2023/07/12 06:40:39;;;;;;;14.10;13.23;;;21.00;99.90;;;;;;5076195;28;20168;-46
2023/07/12 06:43:04;;;;;;;13.90;13.10;;;20.90;99.90;;;;;;5094156;28;20168;-44
2023/07/12 06:45:30;;;;;;;13.07;12.17;;;20.90;99.90;;;;;;5074735;28;20214;-44
2023/07/12 06:47:55;;;;;;;13.33;12.50;;;21.00;99.90;;;;;;5057307;28;20183;-44
2023/07/12 06:50:21;;;;;;;14.50;13.43;;;21.10;99.90;;;;;;5072849;28;20227;-46
2023/07/12 06:52:47;;;;;;;11.80;10.90;;;21.20;99.90;;;;;;5089867;28;20168;-47
2023/07/12 06:55:13;;;;;;;9.33;8.73;;;21.30;99.90;;;;;;5073011;28;20804;-45
2023/07/12 06:57:38;;;;;;;8.97;8.27;;;21.40;99.90;;;;;;5074497;28;20218;-49
2023/07/12 07:00:07;;;;;;;8.17;7.60;;;21.40;99.90;;;;;;5074722;28;20172;-45
2023/07/12 07:02:33;;;;;;;8.40;7.90;;;21.50;99.90;;;;;;5076013;28;20225;-43
2023/07/12 07:05:01;;;;;;;11.30;10.60;;;21.40;99.90;;;;;;5096102;28;20187;-44
2023/07/12 07:07:28;;;;;;;10.93;10.27;;;21.40;99.90;;;;;;5078105;28;20525;-43
2023/07/12 07:09:54;;;;;;;10.73;9.93;;;21.30;99.90;;;;;;5077674;28;20257;-45
2023/07/12 07:12:20;;;;;;;10.23;9.57;;;21.40;99.90;;;;;;5073790;28;20232;-45
2023/07/12 07:14:45;;;;;;;12.00;11.23;;;21.40;99.90;;;;;;5074183;28;20176;-45
2023/07/12 07:17:11;;;;;;;10.00;9.40;;;21.40;99.90;;;;;;5074824;28;20206;-47
2023/07/12 07:19:37;;;;;;;9.97;9.03;;;21.40;99.90;;;;;;5072702;28;20353;-45
2023/07/12 07:22:04;;;;;;;9.90;9.23;;;21.40;99.90;;;;;;5066702;28;20705;-44
2023/07/12 07:24:29;;;;;;;9.97;9.37;;;21.30;99.90;;;;;;5068246;28;20544;-45
2023/07/12 07:26:55;;;;;;;10.03;9.43;;;21.40;99.90;;;;;;5070022;28;20183;-43
2023/07/12 07:29:21;;;;;;;13.33;12.47;;;21.40;99.90;;;;;;5088066;28;20366;-44
2023/07/12 07:31:46;;;;;;;12.50;11.90;;;21.40;99.90;;;;;;5089164;28;20329;-43
2023/07/12 07:34:13;;;;;;;9.90;9.20;;;21.50;99.90;;;;;;5089998;28;20242;-44
2023/07/12 07:36:38;;;;;;;13.37;12.50;;;21.40;99.90;;;;;;5071285;28;20203;-43
2023/07/12 07:39:05;;;;;;;13.10;12.20;;;21.40;99.90;;;;;;5088565;28;20160;-47
2023/07/12 07:41:30;;;;;;;9.20;8.60;;;21.50;99.90;;;;;;5071552;28;20180;-43
2023/07/12 07:43:56;;;;;;;13.00;12.27;;;21.50;99.90;;;;;;5089837;28;20171;-43
2023/07/12 07:46:22;;;;;;;12.90;12.10;;;21.50;99.90;;;;;;5072371;28;20172;-43
2023/07/12 07:48:48;;;;;;;23.83;22.53;;;21.30;99.90;;;;;;5089728;28;20282;-43
2023/07/12 07:51:14;;;;;;;22.07;20.90;;;21.10;99.90;;;;;;5090049;28;20324;-48
2023/07/12 07:53:40;;;;;;;14.23;13.27;;;21.10;99.90;;;;;;5074279;28;20169;-45
2023/07/12 07:56:06;;;;;;;14.20;13.37;;;21.10;99.90;;;;;;5074373;28;20183;-44
2023/07/12 07:58:32;;;;;;;14.30;13.37;;;21.20;99.90;;;;;;5076251;28;20608;-43
2023/07/12 08:00:57;;;;;;;13.57;12.67;;;21.30;99.90;;;;;;5079821;28;20267;-44
2023/07/12 08:03:23;;;;;;;19.53;18.50;;;21.40;99.90;;;;;;5096846;28;20160;-46
2023/07/12 08:05:48;;;;;;;20.80;19.70;;;21.40;99.90;;;;;;5078955;28;20455;-43
2023/07/12 08:08:15;;;;;;;26.90;25.37;;;21.50;99.90;;;;;;5078279;28;20277;-43
2023/07/12 08:10:41;;;;;;;27.93;26.50;;;21.50;99.90;;;;;;5095798;28;20763;-43
2023/07/12 08:13:06;;;;;;;27.87;26.37;;;21.50;99.90;;;;;;5076786;28;20188;-44
2023/07/12 08:15:34;;;;;;;25.97;24.40;;;21.50;99.90;;;;;;5077248;28;20176;-43
2023/07/12 08:17:59;;;;;;;29.10;27.40;;;21.50;99.90;;;;;;5060963;28;20192;-45
2023/07/12 08:20:26;;;;;;;29.53;28.00;;;21.60;99.90;;;;;;5094920;28;20195;-47
2023/07/12 08:22:52;;;;;;;29.37;27.73;;;21.60;99.90;;;;;;5095788;28;20144;-44
2023/07/12 08:25:18;;;;;;;26.83;25.43;;;21.60;99.90;;;;;;5077352;28;20175;-47
2023/07/12 08:27:43;;;;;;;16.97;15.77;;;21.60;99.90;;;;;;5078187;28;20180;-44
2023/07/12 08:30:10;;;;;;;23.30;22.00;;;21.50;99.90;;;;;;5061838;28;20305;-44
2023/07/12 08:32:37;;;;;;;21.70;20.33;;;21.50;99.90;;;;;;5056762;28;20173;-45
2023/07/12 08:35:03;;;;;;;23.77;22.37;;;21.60;99.90;;;;;;5055334;28;20183;-46
2023/07/12 08:37:29;;;;;;;25.20;23.80;;;21.60;99.90;;;;;;5057429;28;20216;-44
2023/07/12 08:39:58;;;;;;;28.50;26.90;;;21.70;99.90;;;;;;5057513;28;20188;-44
2023/07/12 08:42:27;;;;;;;6.13;5.63;;;21.80;99.90;;;;;;5075267;28;20554;-43
2023/07/12 08:44:57;;;;;;;14.77;13.83;;;21.90;99.90;;;;;;5074958;28;20233;-42
2023/07/12 08:47:36;;;;;;;26.40;24.70;;;21.70;99.90;;;;;;5075244;28;20271;-46
2023/07/12 08:50:13;;;;;;;20.03;18.90;;;21.60;99.90;;;;;;5059043;28;20296;-43
2023/07/12 08:52:40;;;;;;;23.83;22.40;;;21.60;99.90;;;;;;5043273;28;20253;-44
2023/07/12 08:55:14;;;;;;;19.53;18.23;;;21.60;99.90;;;;;;5074651;28;20591;-43
2023/07/12 08:57:41;;;;;;;23.27;21.63;;;21.60;99.90;;;;;;5039464;28;20621;-43
2023/07/12 09:00:32;;;;;;;24.83;23.33;;;21.40;99.90;;;;;;5056459;28;20202;-43
2023/07/12 09:02:58;;;;;;;25.00;23.40;;;21.60;99.90;;;;;;5055722;28;20171;-46
2023/07/12 09:05:25;;;;;;;25.43;24.13;;;21.70;99.90;;;;;;5054570;28;20180;-44
2023/07/12 09:08:10;;;;;;;22.40;20.20;;;21.80;99.90;;;;;;5056959;28;20176;-45
2023/07/12 09:10:46;;;;;;;7.27;6.57;;;21.70;99.90;;;;;;5073217;28;20196;-43
2023/07/12 09:13:14;;;;;;;17.90;16.90;;;21.70;99.90;;;;;;5074137;28;20196;-46
2023/07/12 09:15:46;;;;;;;20.00;18.40;;;21.70;99.90;;;;;;5056118;28;20481;-47
2023/07/12 09:18:31;;;;;;;19.47;18.03;;;21.80;99.90;;;;;;5056600;28;20897;-47
2023/07/12 09:21:00;;;;;;;17.40;16.07;;;22.00;99.90;;;;;;5073935;28;20608;-46
2023/07/12 09:23:37;;;;;;;16.30;15.13;;;22.00;99.90;;;;;;5074232;28;20422;-46
2023/07/12 09:26:12;;;;;;;18.50;17.30;;;22.10;99.90;;;;;;5056605;28;20167;-46
2023/07/12 09:28:40;;;;;;;15.00;11.83;;;22.10;99.90;;;;;;5059498;28;20595;-43
2023/07/12 09:31:22;;;;;;;14.40;13.27;;;22.20;99.90;;;;;;5094492;28;20176;-44
2023/07/12 09:33:53;;;;;;;10.93;10.13;;;22.30;99.90;;;;;;5077938;28;20224;-45
2023/07/12 09:36:19;;;;;;;8.83;8.13;;;22.30;99.90;;;;;;5078292;28;20207;-47
2023/07/12 09:38:46;;;;;;;9.67;8.73;;;22.30;99.90;;;;;;5077080;28;20172;-43
2023/07/12 09:41:23;;;;;;;10.47;9.67;;;22.20;99.90;;;;;;5094942;28;20156;-42
2023/07/12 09:43:57;;;;;;;10.07;8.07;;;22.20;99.90;;;;;;5059964;28;20180;-46
2023/07/12 09:46:36;;;;;;;9.20;8.30;;;22.10;99.90;;;;;;5094293;28;20269;-44
2023/07/12 09:49:20;;;;;;;7.00;6.53;;;22.10;99.90;;;;;;5093884;28;20176;-44
2023/07/12 09:52:16;;;;;;;9.10;8.57;;;22.00;99.90;;;;;;5074591;28;20172;-46
2023/07/12 09:55:03;;;;;;;8.27;7.67;;;22.20;99.90;;;;;;5072908;28;20330;-43
2023/07/12 09:57:44;;;;;;;10.03;9.10;;;22.30;99.90;;;;;;5073450;28;20259;-46
2023/07/12 10:00:21;;;;;;;8.93;7.97;;;22.30;99.90;;;;;;5074919;28;20164;-47
2023/07/12 10:03:14;;;;;;;8.97;8.17;;;22.20;99.90;;;;;;5093605;28;20186;-45
2023/07/12 10:05:49;;;;;;;9.37;8.57;;;22.20;99.90;;;;;;5076261;28;20266;-47
2023/07/12 10:08:17;;;;;;;11.57;10.73;;;22.30;99.90;;;;;;5093541;28;20156;-47
2023/07/12 10:11:04;;;;;;;8.90;8.20;;;22.30;99.90;;;;;;5060282;28;20186;-43
2023/07/12 10:13:41;;;;;;;27.23;25.60;;;22.40;99.90;;;;;;5060661;28;20236;-43
2023/07/12 10:16:14;;;;;;;9.53;8.73;;;22.50;99.90;;;;;;5075401;28;20860;-44
2023/07/12 10:18:43;;;;;;;8.57;7.27;;;22.60;99.90;;;;;;5042738;28;20288;-43
2023/07/12 10:21:16;;;;;;;11.27;10.47;;;22.60;99.90;;;;;;5075813;28;20160;-44
2023/07/12 10:24:13;;;;;;;16.80;15.43;;;22.60;99.90;;;;;;5058999;28;20270;-44
2023/07/12 10:26:38;;;;;;;11.67;10.60;;;22.70;99.90;;;;;;5073275;28;20184;-48
2023/07/12 10:29:25;;;;;;;11.07;9.97;;;22.70;99.90;;;;;;5071498;28;20225;-44
2023/07/12 10:32:01;;;;;;;13.67;12.60;;;22.70;99.90;;;;;;5057208;28;20172;-42
2023/07/12 10:34:44;;;;;;;21.37;19.50;;;22.50;99.90;;;;;;5071436;28;20255;-46
2023/07/12 10:37:24;;;;;;;17.73;16.63;;;22.50;99.90;;;;;;5072082;28;20219;-43
2023/07/12 10:39:50;;;;;;;15.23;14.03;;;22.60;99.90;;;;;;5074984;28;20263;-45
2023/07/12 10:42:30;;;;;;;8.50;6.40;;;22.60;99.90;;;;;;5075801;28;20195;-44
2023/07/12 10:44:58;;;;;;;8.60;7.20;;;22.60;99.90;;;;;;5075885;28;20251;-44
2023/07/12 10:47:30;;;;;;;8.13;7.30;;;22.70;99.90;;;;;;5074780;28;20169;-44
2023/07/12 10:50:00;;;;;;;8.47;5.87;;;22.60;99.90;;;;;;5075329;28;20175;-45
2023/07/12 10:52:27;;;;;;;20.70;18.77;;;22.60;99.90;;;;;;5073861;28;20180;-44
2023/07/12 10:55:20;;;;;;;7.50;5.37;;;22.50;99.90;;;;;;5073905;28;20161;-46
2023/07/12 10:57:49;;;;;;;7.97;6.77;;;22.60;99.90;;;;;;5072424;28;20298;-45
2023/07/12 11:00:30;;;;;;;7.23;6.17;;;22.70;99.90;;;;;;5072736;28;20177;-45
2023/07/12 11:03:02;;;;;;;8.80;5.33;;;22.70;99.90;;;;;;5071341;28;20178;-44
2023/07/12 11:05:45;;;;;;;8.33;5.40;;;22.70;99.90;;;;;;5072381;28;20172;-43
2023/07/12 11:08:36;;;;;;;7.93;7.23;;;22.70;99.90;;;;;;5073562;28;20264;-43
2023/07/12 11:11:10;;;;;;;8.07;6.87;;;22.70;99.90;;;;;;5073191;28;20279;-43
2023/07/12 11:13:45;;;;;;;12.33;11.20;;;22.70;99.90;;;;;;5073203;28;20180;-46
2023/07/12 11:16:18;;;;;;;10.10;6.90;;;22.80;99.90;;;;;;5075305;28;20160;-44
2023/07/12 11:18:49;;;;;;;8.07;4.97;;;22.90;99.90;;;;;;5074112;28;20192;-44
2023/07/12 11:21:47;;;;;;;9.40;5.73;;;23.10;99.90;;;;;;5075153;28;20251;-43
2023/07/12 11:24:35;;;;;;;7.40;6.77;;;23.10;99.90;;;;;;5074039;28;20587;-45
2023/07/12 11:27:02;;;;;;;8.27;7.47;;;23.20;99.90;;;;;;5073490;28;20164;-43
2023/07/12 11:29:36;;;;;;;16.53;15.27;;;23.20;99.90;;;;;;5082717;28;20301;-43
2023/07/12 11:32:26;;;;;;;13.17;12.27;;;23.20;99.90;;;;;;5075800;28;20210;-45
2023/07/12 11:35:00;;;;;;;15.53;14.43;;;23.30;99.90;;;;;;5075499;28;20176;-44
2023/07/12 11:37:34;;;;;;;13.43;12.33;;;23.20;99.90;;;;;;5073949;28;20597;-43
2023/07/12 11:40:00;;;;;;;10.93;10.03;;;23.30;99.90;;;;;;5074848;28;20175;-45
2023/07/12 11:42:29;;;;;;;15.60;14.27;;;23.40;99.90;;;;;;5094651;28;20511;-44
2023/07/12 11:45:12;;;;;;;16.23;15.13;;;23.50;99.90;;;;;;5096492;28;20148;-44
2023/07/12 11:47:43;;;;;;;7.03;5.43;;;23.70;99.90;;;;;;5076667;28;20790;-44
2023/07/12 11:50:19;;;;;;;8.37;6.47;;;23.90;99.90;;;;;;5094254;28;20176;-43
2023/07/12 11:52:46;;;;;;;7.40;5.90;;;24.30;99.90;;;;;;5095923;28;20187;-43
2023/07/12 11:55:15;;;;;;;13.73;12.63;;;24.90;99.90;;;;;;5078333;28;20291;-45
2023/07/12 11:57:43;;;;;;;21.17;19.80;;;24.90;99.90;;;;;;5094982;28;20210;-45
2023/07/12 12:00:23;;;;;;;21.85;20.25;;;25.50;99.90;;;;;;5077249;28;20258;-44
2023/07/12 12:02:54;;;;;;;29.52;27.77;;;25.90;99.90;;;;;;5095102;28;20174;-43
2023/07/12 12:05:25;;;;;;;29.13;27.35;;;25.90;99.90;;;;;;5077072;28;20160;-44
2023/07/12 12:07:54;;;;;;;39.45;37.10;;;25.30;99.90;;;;;;5077718;28;20207;-44
2023/07/12 12:10:40;;;;;;;22.73;21.20;;;24.90;99.90;;;;;;5078243;28;20271;-46
2023/07/12 12:13:21;;;;;;;17.48;16.13;;;24.60;99.90;;;;;;5078060;28;20186;-44
2023/07/12 12:15:57;;;;;;;32.95;30.85;;;24.60;99.90;;;;;;5076083;28;20246;-43
2023/07/12 12:18:24;;;;;;;25.98;24.08;;;25.00;99.90;;;;;;5074685;28;20227;-43
2023/07/12 12:21:14;;;;;;;32.83;30.38;;;25.10;99.90;;;;;;5093460;28;20211;-44
2023/07/12 12:23:42;;;;;;;60.85;57.40;;;24.80;99.90;;;;;;5074865;28;20173;-44
2023/07/12 12:26:19;;;;;;;38.17;36.05;;;24.90;99.90;;;;;;5091828;28;20176;-44
2023/07/12 12:28:59;;;;;;;47.85;45.10;;;24.70;99.90;;;;;;5070652;28;20224;-43
2023/07/12 12:31:28;;;;;;;43.05;40.45;;;24.80;99.90;;;;;;5056543;28;20169;-46
2023/07/12 12:34:15;;;;;;;24.40;22.90;;;25.00;99.90;;;;;;5057758;28;20207;-44
2023/07/12 12:37:15;;;;;;;16.38;14.80;;;24.70;99.90;;;;;;5075157;28;20295;-46
2023/07/12 12:39:47;;;;;;;5.22;4.45;;;24.50;99.90;;;;;;5074914;28;20172;-46
2023/07/12 12:42:20;;;;;;;5.40;3.00;;;24.50;99.90;;;;;;5058293;28;20440;-44
2023/07/12 12:44:45;;;;;;;5.30;2.90;;;24.50;99.90;;;;;;5058357;28;20169;-43
2023/07/12 12:47:16;;;;;;;6.80;3.53;;;24.20;99.90;;;;;;5058108;28;20169;-44
2023/07/12 12:49:42;;;;;;;4.50;3.03;;;24.10;99.90;;;;;;5057889;28;20157;-44